createdAt,value
2023-01-23T00:15:49.820Z,1.9
2023-01-23T00:35:04.108Z,2
2023-01-23T00:54:21.405Z,1.8
2023-01-23T01:13:35.038Z,1.7
2023-01-23T01:32:49.583Z,1.5
2023-01-23T01:52:03.517Z,1.6
2023-01-23T02:30:35.843Z,1.2
2023-01-23T02:49:49.021Z,1.1
2023-01-23T03:09:01.529Z,0.6
2023-01-23T03:28:15.860Z,0.4
2023-01-23T03:47:33.828Z,0.8
2023-01-23T04:06:49.813Z,0.9
2023-01-23T04:26:04.997Z,1.1
2023-01-23T04:45:19.722Z,1.2
2023-01-23T05:04:33.622Z,1.3
2023-01-23T05:23:44.996Z,1.1
2023-01-23T05:43:00.970Z,1.3
2023-01-23T06:02:17.244Z,1.4
2023-01-23T06:21:32.882Z,1.6
2023-01-23T06:40:47.632Z,1.6
2023-01-23T07:00:02.865Z,1.6
2023-01-23T07:19:18.158Z,1.7
2023-01-23T07:38:33.035Z,1.8
2023-01-23T07:57:47.752Z,1.9
2023-01-23T08:17:03.392Z,2
2023-01-23T08:36:16.970Z,2
2023-01-23T08:55:31.503Z,2.2
2023-01-23T09:14:46.821Z,2.5
2023-01-23T09:34:03.059Z,2.7
2023-01-23T09:53:17.801Z,2.9
2023-01-23T10:12:32.312Z,2.9
2023-01-23T10:31:47.920Z,3
2023-01-23T10:51:02.651Z,3.2
2023-01-23T11:10:18.809Z,3.3
2023-01-23T11:29:32.788Z,3.4
2023-01-23T11:48:47.736Z,3.5
2023-01-23T12:08:02.375Z,3.6
2023-01-23T12:27:17.933Z,3.8
2023-01-23T12:46:31.045Z,3.8
2023-01-23T13:05:44.255Z,3.7
2023-01-23T13:24:55.948Z,3.8
2023-01-23T13:44:10.535Z,3.3
2023-01-23T14:03:27.127Z,3.8
2023-01-23T14:22:40.300Z,3.6
2023-01-23T14:41:55.427Z,3.5
2023-01-23T15:01:08.716Z,3.2
2023-01-23T15:20:21.531Z,3.2
2023-01-23T15:39:35.259Z,3
2023-01-23T15:58:51.151Z,3.1
2023-01-23T16:18:05.200Z,2.8
2023-01-23T16:37:19.189Z,2.7
2023-01-23T16:56:33.631Z,2.8
2023-01-23T17:15:47.856Z,2.8
2023-01-23T17:35:03.118Z,2.8
2023-01-23T17:54:18.010Z,2.8
2023-01-23T18:13:29.926Z,2.9
2023-01-23T18:32:44.045Z,2.8
2023-01-23T18:51:58.574Z,2.7
2023-01-23T19:11:14.393Z,2.6
2023-01-23T19:30:27.333Z,2.7
2023-01-23T19:49:41.788Z,2.7
2023-01-23T20:08:56.638Z,2.7
2023-01-23T20:28:11.072Z,2.7
2023-01-23T20:47:26.385Z,2.7
2023-01-23T21:06:41.216Z,2.7
2023-01-23T21:25:56.348Z,2.8
2023-01-23T21:45:07.877Z,2.7
2023-01-23T22:04:22.431Z,2.8
2023-01-23T22:23:37.471Z,2.6
2023-01-23T22:42:53.107Z,2.7
2023-01-23T23:02:07.463Z,2.7
2023-01-23T23:21:21.655Z,2.7
2023-01-23T23:40:38.322Z,2.6
2023-01-23T23:59:52.198Z,2.5
